Time;durP1;ratioP1;P1;durP2;ratioP2;P2;SDS_P1;SDS_P2;PMS_P1;PMS_P2;Temp;Humidity;BMP_temperature;BMP_pressure;BME280_temperature;BME280_humidity;BME280_pressure;Samples;Min_cycle;Max_cycle;Signal;HPM_P1;HPM_P2
2023/08/26 00:02:08;;;;;;;8.63;6.57;;;18.50;99.90;;;;;;5082070;28;20185;-59
2023/08/26 00:04:34;;;;;;;8.43;6.13;;;18.50;99.90;;;;;;5078186;28;20916;-58
2023/08/26 00:07:00;;;;;;;11.00;7.13;;;18.50;99.90;;;;;;5082953;28;20925;-57
2023/08/26 00:09:26;;;;;;;11.50;8.17;;;18.40;99.90;;;;;;5081324;28;20444;-59
2023/08/26 00:11:52;;;;;;;11.97;7.20;;;18.40;99.90;;;;;;5083275;28;20447;-59
2023/08/26 00:14:18;;;;;;;8.83;7.47;;;18.40;99.90;;;;;;5083318;28;20439;-59
2023/08/26 00:16:43;;;;;;;16.00;7.27;;;18.40;99.90;;;;;;5082800;28;20824;-59
2023/08/26 00:19:09;;;;;;;13.93;7.33;;;18.40;99.90;;;;;;5078678;28;20166;-59
2023/08/26 00:21:35;;;;;;;14.50;8.67;;;18.30;99.90;;;;;;5081575;28;20267;-58
2023/08/26 00:24:01;;;;;;;12.07;8.50;;;18.30;99.90;;;;;;5082745;28;20770;-58
2023/08/26 00:26:26;;;;;;;10.40;8.63;;;18.40;99.90;;;;;;5083343;28;20442;-59
2023/08/26 00:28:54;;;;;;;11.20;7.30;;;18.40;99.90;;;;;;5085482;28;20266;-58
2023/08/26 00:31:22;;;;;;;14.60;7.23;;;18.40;99.90;;;;;;5080792;28;20213;-60
2023/08/26 00:33:47;;;;;;;12.40;6.67;;;18.40;99.90;;;;;;5082770;28;21766;-60
2023/08/26 00:36:13;;;;;;;12.73;7.60;;;18.40;99.90;;;;;;5074660;28;20467;-60
2023/08/26 00:38:39;;;;;;;10.30;7.80;;;18.40;99.90;;;;;;5083230;28;20174;-60
2023/08/26 00:41:04;;;;;;;11.03;7.10;;;18.40;99.90;;;;;;5081332;28;20212;-61
2023/08/26 00:43:30;;;;;;;13.00;8.13;;;18.50;99.90;;;;;;5082678;28;20181;-60
2023/08/26 00:45:57;;;;;;;9.10;7.23;;;18.50;99.90;;;;;;5084501;28;20174;-59
2023/08/26 00:48:23;;;;;;;12.20;7.47;;;18.40;99.90;;;;;;5082282;28;20190;-61
2023/08/26 00:50:52;;;;;;;11.50;6.87;;;18.40;99.90;;;;;;5079950;28;21760;-59
2023/08/26 00:53:20;;;;;;;10.00;7.23;;;18.40;99.90;;;;;;5084540;28;20178;-60
2023/08/26 00:55:46;;;;;;;16.60;8.60;;;18.50;99.90;;;;;;5087405;28;20485;-59
2023/08/26 00:58:13;;;;;;;11.77;7.40;;;18.50;99.90;;;;;;5084162;28;20521;-58
2023/08/26 01:00:39;;;;;;;10.73;7.63;;;18.50;99.90;;;;;;5085330;28;20459;-60
2023/08/26 01:03:06;;;;;;;12.70;6.90;;;18.50;99.90;;;;;;5086295;28;20416;-61
2023/08/26 01:05:32;;;;;;;10.10;6.90;;;18.50;99.90;;;;;;5082045;28;20963;-60
2023/08/26 01:07:59;;;;;;;14.90;7.23;;;18.50;99.90;;;;;;5087699;28;20502;-60
2023/08/26 01:10:55;;;;;;;12.60;7.53;;;18.50;99.90;;;;;;5085106;28;20211;-59
2023/08/26 01:13:28;;;;;;;12.07;6.57;;;18.40;99.90;;;;;;5083948;28;20443;-59
2023/08/26 01:15:55;;;;;;;22.87;7.70;;;18.40;99.90;;;;;;5083848;28;20455;-61
2023/08/26 01:18:21;;;;;;;9.27;7.23;;;18.40;99.90;;;;;;5086221;28;20423;-59
2023/08/26 01:20:48;;;;;;;10.30;6.67;;;18.40;99.90;;;;;;5084311;28;20450;-60
2023/08/26 01:23:36;;;;;;;9.80;7.17;;;18.40;99.90;;;;;;5088295;28;20174;-59
2023/08/26 01:26:02;;;;;;;11.90;7.43;;;18.40;99.90;;;;;;5083972;28;20430;-60
2023/08/26 01:28:28;;;;;;;12.37;7.57;;;18.40;99.90;;;;;;5091347;28;20941;-60
2023/08/26 01:30:57;;;;;;;16.73;7.90;;;18.30;99.90;;;;;;5089062;28;20537;-61
2023/08/26 01:33:28;;;;;;;9.90;7.07;;;18.30;99.90;;;;;;5081377;28;20182;-60
2023/08/26 01:35:59;;;;;;;12.97;7.60;;;18.30;99.90;;;;;;5086415;28;20831;-59
2023/08/26 01:38:26;;;;;;;10.33;6.40;;;18.30;99.90;;;;;;5083930;28;22667;-59
2023/08/26 01:40:54;;;;;;;8.80;6.83;;;18.30;99.90;;;;;;5091157;28;20465;-58
2023/08/26 01:43:21;;;;;;;11.00;7.30;;;18.30;99.90;;;;;;5086500;28;20419;-59
2023/08/26 01:45:47;;;;;;;11.67;7.37;;;18.20;99.90;;;;;;5081579;28;20577;-60
2023/08/26 01:48:13;;;;;;;12.17;6.40;;;18.20;99.90;;;;;;5088936;28;20769;-57
2023/08/26 01:50:39;;;;;;;9.53;6.50;;;18.20;99.90;;;;;;5089861;28;20197;-58
2023/08/26 01:53:04;;;;;;;9.03;6.37;;;18.20;99.90;;;;;;5090309;28;20174;-59
2023/08/26 01:55:31;;;;;;;16.13;6.83;;;18.20;99.90;;;;;;5089962;28;20181;-59
2023/08/26 01:57:57;;;;;;;11.13;6.40;;;18.20;99.90;;;;;;5089279;28;20442;-59
2023/08/26 02:00:22;;;;;;;9.13;6.17;;;18.20;99.90;;;;;;5071346;28;20935;-58
2023/08/26 02:02:48;;;;;;;9.20;5.80;;;18.20;99.90;;;;;;5089814;28;20181;-59
2023/08/26 02:05:14;;;;;;;7.80;6.40;;;18.20;99.90;;;;;;5088009;28;20662;-59
2023/08/26 02:07:39;;;;;;;12.13;6.73;;;18.20;99.90;;;;;;5086082;28;20275;-59
2023/08/26 02:10:06;;;;;;;8.83;6.57;;;18.30;99.90;;;;;;5091302;28;20182;-61
2023/08/26 02:12:32;;;;;;;9.33;6.20;;;18.30;99.90;;;;;;5087779;28;20289;-58
2023/08/26 02:14:57;;;;;;;8.33;6.20;;;18.30;99.90;;;;;;5091428;28;20523;-59
2023/08/26 02:17:23;;;;;;;8.23;5.60;;;18.40;99.90;;;;;;5083956;28;20214;-59
2023/08/26 02:19:48;;;;;;;9.10;5.37;;;18.40;99.90;;;;;;5087042;28;20184;-59
2023/08/26 02:22:15;;;;;;;11.37;5.60;;;18.40;99.90;;;;;;5093500;28;20858;-59
2023/08/26 02:24:41;;;;;;;8.63;5.47;;;18.40;99.90;;;;;;5085179;28;20639;-59
2023/08/26 02:27:07;;;;;;;7.23;4.77;;;18.50;99.90;;;;;;5093775;28;20426;-59
2023/08/26 02:29:32;;;;;;;7.03;4.90;;;18.50;99.90;;;;;;5086861;28;20653;-58
2023/08/26 02:31:58;;;;;;;9.50;5.50;;;18.50;99.90;;;;;;5090239;28;20251;-58
2023/08/26 02:34:25;;;;;;;7.37;4.93;;;18.50;99.90;;;;;;5082935;28;21027;-58
2023/08/26 02:36:51;;;;;;;7.97;5.43;;;18.50;99.90;;;;;;5086414;28;20205;-59
2023/08/26 02:39:17;;;;;;;9.50;5.33;;;18.50;99.90;;;;;;5089739;28;20495;-60
2023/08/26 02:41:42;;;;;;;12.27;5.30;;;18.50;99.90;;;;;;5085848;28;20212;-59
2023/08/26 02:44:08;;;;;;;7.90;5.57;;;18.50;99.90;;;;;;5086016;28;20177;-60
2023/08/26 02:46:34;;;;;;;11.20;5.50;;;18.40;99.90;;;;;;5087681;28;20627;-59
2023/08/26 02:49:01;;;;;;;5.30;4.80;;;18.40;99.90;;;;;;5089010;28;20248;-60
2023/08/26 02:51:26;;;;;;;7.20;5.27;;;18.40;99.90;;;;;;5086438;28;20196;-61
2023/08/26 02:53:52;;;;;;;8.03;6.03;;;18.40;99.90;;;;;;5086173;28;20427;-59
2023/08/26 02:56:18;;;;;;;8.70;5.20;;;18.40;99.90;;;;;;5088354;28;20670;-60
2023/08/26 02:58:43;;;;;;;6.17;5.20;;;18.30;99.90;;;;;;5088222;28;20527;-59
2023/08/26 03:01:09;;;;;;;11.90;5.30;;;18.30;99.90;;;;;;5089104;28;20186;-59
2023/08/26 03:03:34;;;;;;;6.77;5.20;;;18.30;99.90;;;;;;5088146;28;20170;-59
2023/08/26 03:06:00;;;;;;;10.53;5.60;;;18.30;99.90;;;;;;5086331;28;20697;-60
2023/08/26 03:08:26;;;;;;;9.20;4.80;;;18.30;99.90;;;;;;5088172;28;20170;-58
2023/08/26 03:10:57;;;;;;;8.67;5.70;;;18.30;99.90;;;;;;5090930;28;20279;-60
2023/08/26 03:13:22;;;;;;;7.83;6.10;;;18.30;99.90;;;;;;5085501;28;20270;-60
2023/08/26 03:15:48;;;;;;;8.80;5.60;;;18.30;99.90;;;;;;5086758;28;20799;-59
2023/08/26 03:18:13;;;;;;;9.87;5.40;;;18.30;99.90;;;;;;5091285;28;20177;-59
2023/08/26 03:20:39;;;;;;;13.13;6.03;;;18.30;99.90;;;;;;5088288;28;20711;-59
2023/08/26 03:23:05;;;;;;;6.60;5.40;;;18.30;99.90;;;;;;5088764;28;20177;-61
2023/08/26 03:25:30;;;;;;;9.70;5.17;;;18.30;99.90;;;;;;5089013;28;20225;-59
2023/08/26 03:27:56;;;;;;;12.07;6.13;;;18.30;99.90;;;;;;5089854;28;20170;-59
2023/08/26 03:30:21;;;;;;;8.40;6.10;;;18.30;99.90;;;;;;5081670;28;20519;-61
2023/08/26 03:32:47;;;;;;;8.73;6.10;;;18.30;99.90;;;;;;5086391;28;20240;-61
2023/08/26 03:35:13;;;;;;;12.97;6.37;;;18.30;99.90;;;;;;5088941;28;20172;-60
2023/08/26 03:37:38;;;;;;;10.40;6.33;;;18.30;99.90;;;;;;5087521;28;20204;-58
2023/08/26 03:40:08;;;;;;;10.60;6.10;;;18.30;99.90;;;;;;5085739;28;20173;-59
2023/08/26 03:42:34;;;;;;;7.53;6.07;;;18.30;99.90;;;;;;5090067;28;20171;-59
2023/08/26 03:44:59;;;;;;;9.00;5.87;;;18.30;99.90;;;;;;5086596;28;20450;-58
2023/08/26 03:47:25;;;;;;;11.17;5.83;;;18.30;99.90;;;;;;5082670;28;20265;-58
2023/08/26 03:49:51;;;;;;;8.30;5.87;;;18.30;99.90;;;;;;5084853;28;20205;-59
2023/08/26 03:52:17;;;;;;;8.33;6.20;;;18.30;99.90;;;;;;5088922;28;20544;-61
2023/08/26 03:54:43;;;;;;;9.87;5.80;;;18.30;99.90;;;;;;5085026;28;20177;-59
2023/08/26 03:57:08;;;;;;;8.27;6.30;;;18.20;99.90;;;;;;5084229;28;20464;-60
2023/08/26 03:59:34;;;;;;;8.40;5.73;;;18.20;99.90;;;;;;5086036;28;20714;-60
2023/08/26 04:01:59;;;;;;;8.60;5.67;;;18.20;99.90;;;;;;5087508;28;20193;-61
2023/08/26 04:04:25;;;;;;;11.70;6.30;;;18.20;99.90;;;;;;5075934;28;20682;-57
2023/08/26 04:06:52;;;;;;;11.03;5.77;;;18.30;99.90;;;;;;5077562;28;20184;-56
2023/08/26 04:09:17;;;;;;;7.37;5.60;;;18.20;99.90;;;;;;5079302;28;20646;-58
2023/08/26 04:11:43;;;;;;;7.10;5.40;;;18.20;99.90;;;;;;5087807;28;20497;-57
2023/08/26 04:14:09;;;;;;;9.73;5.80;;;18.20;99.90;;;;;;5085878;28;20190;-59
2023/08/26 04:16:35;;;;;;;5.50;4.90;;;18.20;99.90;;;;;;5083133;28;20212;-57
2023/08/26 04:19:01;;;;;;;7.00;6.07;;;18.20;99.90;;;;;;5083008;28;20178;-58
2023/08/26 04:21:26;;;;;;;8.07;5.90;;;18.20;99.90;;;;;;5083192;28;20536;-58
2023/08/26 04:23:52;;;;;;;12.13;6.20;;;18.10;99.90;;;;;;5073124;28;20181;-58
2023/08/26 04:26:17;;;;;;;8.93;5.60;;;18.20;99.90;;;;;;5086227;28;20182;-57
2023/08/26 04:28:43;;;;;;;10.63;6.33;;;18.10;99.90;;;;;;5083702;28;20762;-58
2023/08/26 04:31:10;;;;;;;6.77;6.00;;;18.10;99.90;;;;;;5085359;28;20202;-60
2023/08/26 04:33:36;;;;;;;8.93;6.30;;;18.10;99.90;;;;;;5084848;28;20208;-58
2023/08/26 04:36:02;;;;;;;7.00;6.30;;;18.10;99.90;;;;;;5085197;28;20456;-59
2023/08/26 04:38:27;;;;;;;7.60;5.10;;;18.10;99.90;;;;;;5085461;28;20488;-58
2023/08/26 04:40:53;;;;;;;6.13;5.53;;;18.10;99.90;;;;;;5085523;28;20455;-58
2023/08/26 04:43:19;;;;;;;10.30;5.50;;;18.00;99.90;;;;;;5090932;28;20175;-58
2023/08/26 04:45:44;;;;;;;6.90;5.70;;;18.00;99.90;;;;;;5085868;28;20268;-58
2023/08/26 04:48:10;;;;;;;12.50;6.03;;;18.00;99.90;;;;;;5074189;28;20162;-57
2023/08/26 04:50:36;;;;;;;8.73;5.03;;;18.00;99.90;;;;;;5084945;28;20201;-58
2023/08/26 04:53:02;;;;;;;6.90;4.83;;;18.00;99.90;;;;;;5085810;28;20243;-57
2023/08/26 04:55:27;;;;;;;8.33;4.97;;;18.00;99.90;;;;;;5088672;28;20178;-58
2023/08/26 04:57:53;;;;;;;13.70;5.57;;;18.00;99.90;;;;;;5076185;28;20802;-57
2023/08/26 05:00:19;;;;;;;7.20;5.10;;;18.00;99.90;;;;;;5077543;28;20197;-61
2023/08/26 05:02:44;;;;;;;9.23;5.57;;;18.00;99.90;;;;;;5065503;28;20676;-59
2023/08/26 05:05:10;;;;;;;9.93;5.00;;;18.00;99.90;;;;;;5088224;28;20166;-57
2023/08/26 05:07:36;;;;;;;7.43;5.57;;;18.00;99.90;;;;;;5086448;28;20549;-57
2023/08/26 05:10:05;;;;;;;12.50;5.70;;;18.00;99.90;;;;;;5079343;28;20174;-59
2023/08/26 05:12:31;;;;;;;8.57;5.23;;;18.00;99.90;;;;;;5066819;28;20189;-57
2023/08/26 05:14:57;;;;;;;8.10;6.50;;;18.10;99.90;;;;;;5080008;28;20509;-58
2023/08/26 05:17:23;;;;;;;8.40;6.37;;;18.10;99.90;;;;;;5078803;28;21949;-57
2023/08/26 05:19:50;;;;;;;9.27;6.93;;;18.10;99.90;;;;;;5073217;28;20517;-59
2023/08/26 05:22:15;;;;;;;12.50;8.10;;;18.10;99.90;;;;;;5060061;28;20297;-58
2023/08/26 05:24:41;;;;;;;15.47;8.37;;;18.10;99.90;;;;;;5083388;28;20612;-58
2023/08/26 05:27:07;;;;;;;10.83;8.50;;;18.10;99.90;;;;;;5077917;28;20256;-58
2023/08/26 05:29:33;;;;;;;14.83;7.30;;;18.10;99.90;;;;;;5077383;28;20188;-59
2023/08/26 05:31:59;;;;;;;10.90;8.13;;;18.20;99.90;;;;;;5074972;28;20201;-60
2023/08/26 05:34:24;;;;;;;19.97;8.53;;;18.20;99.90;;;;;;5078511;28;20486;-57
2023/08/26 05:36:50;;;;;;;10.80;8.50;;;18.20;99.90;;;;;;5071432;28;20201;-61
2023/08/26 05:39:15;;;;;;;15.60;8.23;;;18.20;99.90;;;;;;5075756;28;20585;-61
2023/08/26 05:41:41;;;;;;;15.40;9.20;;;18.20;99.90;;;;;;5072079;28;20189;-56
2023/08/26 05:44:07;;;;;;;15.63;8.73;;;18.20;99.90;;;;;;5078269;28;20208;-58
2023/08/26 05:46:32;;;;;;;17.37;9.47;;;18.20;99.90;;;;;;5071181;28;20546;-61
2023/08/26 05:48:58;;;;;;;14.83;8.83;;;18.20;99.90;;;;;;5074501;28;20208;-59
2023/08/26 05:51:24;;;;;;;16.20;9.57;;;18.30;99.90;;;;;;5076963;28;20202;-59
2023/08/26 05:53:50;;;;;;;14.13;9.40;;;18.30;99.90;;;;;;5064762;28;20197;-58
2023/08/26 05:56:16;;;;;;;17.60;9.87;;;18.40;99.90;;;;;;5081563;28;21830;-58
2023/08/26 05:58:41;;;;;;;17.30;11.37;;;18.40;99.90;;;;;;5079854;28;21095;-58
2023/08/26 06:01:07;;;;;;;18.03;10.53;;;18.40;99.90;;;;;;5082986;28;20197;-60
2023/08/26 06:03:32;;;;;;;14.80;10.13;;;18.50;99.90;;;;;;5075638;28;20175;-59
2023/08/26 06:05:58;;;;;;;11.87;8.10;;;18.50;99.90;;;;;;5070359;28;20314;-58
2023/08/26 06:08:23;;;;;;;11.60;7.87;;;18.50;99.90;;;;;;5079652;28;20184;-60
2023/08/26 06:10:56;;;;;;;12.40;7.47;;;18.60;99.90;;;;;;5077254;28;20294;-61
2023/08/26 06:13:22;;;;;;;15.33;9.00;;;18.60;99.90;;;;;;5065818;28;20190;-62
2023/08/26 06:15:57;;;;;;;14.90;9.77;;;18.70;99.90;;;;;;5066619;28;20442;-61
2023/08/26 06:18:23;;;;;;;19.50;10.93;;;18.70;99.90;;;;;;5069905;28;20172;-61
2023/08/26 06:20:52;;;;;;;19.30;11.47;;;18.70;99.90;;;;;;5084937;28;20443;-61
2023/08/26 06:23:19;;;;;;;18.80;13.87;;;18.80;99.90;;;;;;5085288;28;20412;-62
2023/08/26 06:25:56;;;;;;;15.73;11.83;;;18.80;99.90;;;;;;5092642;28;20435;-61
2023/08/26 06:28:23;;;;;;;22.83;12.30;;;18.90;99.90;;;;;;5090937;28;21234;-62
2023/08/26 06:30:49;;;;;;;21.20;11.80;;;18.90;99.90;;;;;;5088102;28;20440;-61
2023/08/26 06:33:14;;;;;;;19.70;11.77;;;19.00;99.90;;;;;;5089057;28;20424;-61
2023/08/26 06:35:40;;;;;;;20.07;10.63;;;19.10;99.90;;;;;;5086510;28;20181;-61
2023/08/26 06:38:07;;;;;;;17.17;11.40;;;19.10;99.90;;;;;;5074879;28;20264;-61
2023/08/26 06:40:33;;;;;;;19.70;12.60;;;19.20;99.90;;;;;;5087027;28;20745;-61
2023/08/26 06:42:59;;;;;;;19.47;12.90;;;19.20;99.90;;;;;;5094240;28;20505;-62
2023/08/26 06:45:25;;;;;;;15.53;11.63;;;19.20;99.90;;;;;;5089830;28;20466;-62
2023/08/26 06:47:51;;;;;;;22.30;12.87;;;19.30;99.90;;;;;;5071450;28;20555;-62
2023/08/26 06:50:16;;;;;;;16.00;11.57;;;19.40;99.90;;;;;;5088931;28;20427;-60
2023/08/26 06:52:42;;;;;;;15.30;10.60;;;19.40;99.90;;;;;;5083614;28;20178;-61
2023/08/26 06:55:10;;;;;;;22.43;12.17;;;19.50;99.90;;;;;;5090550;28;20178;-61
2023/08/26 06:57:36;;;;;;;17.10;10.70;;;19.50;99.90;;;;;;5084761;28;20670;-61
2023/08/26 07:00:08;;;;;;;16.80;11.07;;;19.50;99.90;;;;;;5084915;28;20430;-61
2023/08/26 07:02:34;;;;;;;17.67;10.40;;;19.60;99.90;;;;;;5089979;28;20221;-60
2023/08/26 07:04:59;;;;;;;13.63;7.20;;;19.70;99.90;;;;;;5090155;28;20505;-62
2023/08/26 07:07:25;;;;;;;11.60;5.43;;;19.60;99.90;;;;;;5087826;28;20188;-60
2023/08/26 07:09:50;;;;;;;9.20;4.40;;;19.50;99.90;;;;;;5091905;28;20185;-59
2023/08/26 07:12:16;;;;;;;7.57;5.43;;;19.30;99.90;;;;;;5088812;28;20206;-60
2023/08/26 07:14:42;;;;;;;7.07;5.40;;;19.30;99.90;;;;;;5088997;28;20198;-62
2023/08/26 07:17:07;;;;;;;11.17;4.97;;;19.20;99.90;;;;;;5087442;28;20204;-60
2023/08/26 07:19:33;;;;;;;14.33;4.83;;;19.10;99.90;;;;;;5081679;28;20577;-62
2023/08/26 07:21:58;;;;;;;14.63;5.60;;;19.10;99.90;;;;;;5089046;28;20206;-61
2023/08/26 07:24:24;;;;;;;13.10;6.40;;;19.10;99.90;;;;;;5086798;28;20205;-60
2023/08/26 07:26:50;;;;;;;10.37;5.73;;;19.10;99.90;;;;;;5084254;28;20188;-60
2023/08/26 07:29:16;;;;;;;6.30;4.53;;;19.10;99.90;;;;;;5089381;28;20178;-60
2023/08/26 07:31:41;;;;;;;9.53;5.07;;;19.10;99.90;;;;;;5082991;28;20204;-60
2023/08/26 07:34:08;;;;;;;16.40;4.67;;;19.10;99.90;;;;;;5084611;28;20177;-60
2023/08/26 07:36:33;;;;;;;11.43;5.10;;;19.10;99.90;;;;;;5070719;28;20217;-60
2023/08/26 07:38:59;;;;;;;8.27;4.87;;;19.10;99.90;;;;;;5090809;28;20430;-60
2023/08/26 07:41:24;;;;;;;10.93;4.60;;;19.10;99.90;;;;;;5085162;28;20590;-60
2023/08/26 07:43:50;;;;;;;4.93;4.20;;;19.10;99.90;;;;;;5090537;28;20208;-61
2023/08/26 07:46:18;;;;;;;7.93;3.90;;;19.10;99.90;;;;;;5084475;28;20562;-61
2023/08/26 07:48:44;;;;;;;10.77;4.50;;;19.10;99.90;;;;;;5083602;28;20657;-60
2023/08/26 07:51:10;;;;;;;8.20;3.87;;;19.20;99.90;;;;;;5087531;28;20455;-60
2023/08/26 07:53:35;;;;;;;10.67;4.13;;;19.20;99.90;;;;;;5087185;28;20207;-60
2023/08/26 07:56:01;;;;;;;8.53;4.73;;;19.20;99.90;;;;;;5076240;28;20990;-61
2023/08/26 07:58:27;;;;;;;8.40;4.17;;;19.10;99.90;;;;;;5082035;28;20223;-61
2023/08/26 08:00:52;;;;;;;9.80;3.97;;;19.10;99.90;;;;;;5093147;28;20190;-61
2023/08/26 08:03:18;;;;;;;9.40;3.67;;;19.10;99.90;;;;;;5084993;28;20772;-60
2023/08/26 08:05:44;;;;;;;5.80;4.00;;;19.10;99.90;;;;;;5086418;28;20209;-62
2023/08/26 08:08:09;;;;;;;5.87;4.30;;;19.00;99.90;;;;;;5084539;28;20178;-60
2023/08/26 08:10:35;;;;;;;6.40;3.87;;;19.00;99.90;;;;;;5088978;28;20276;-60
2023/08/26 08:13:01;;;;;;;6.50;3.43;;;19.00;99.90;;;;;;5092650;28;20190;-60
2023/08/26 08:15:26;;;;;;;7.33;3.60;;;19.00;99.90;;;;;;5087895;28;20185;-61
2023/08/26 08:17:52;;;;;;;7.63;3.83;;;19.00;99.90;;;;;;5087371;28;20201;-61
2023/08/26 08:20:19;;;;;;;6.60;4.47;;;19.00;99.90;;;;;;5085571;28;20174;-60
2023/08/26 08:22:45;;;;;;;8.73;4.27;;;19.00;99.90;;;;;;5082512;28;20189;-61
2023/08/26 08:25:11;;;;;;;9.40;4.30;;;19.10;99.90;;;;;;5068208;28;20428;-61
2023/08/26 08:27:38;;;;;;;7.90;4.27;;;19.10;99.90;;;;;;5087215;28;20194;-60
2023/08/26 08:30:05;;;;;;;15.20;4.40;;;19.10;99.90;;;;;;5088479;28;20438;-60
2023/08/26 08:32:32;;;;;;;6.30;4.10;;;19.10;99.90;;;;;;5077287;28;20462;-61
2023/08/26 08:34:59;;;;;;;11.77;4.50;;;19.20;99.90;;;;;;5093079;28;20503;-59
2023/08/26 08:37:24;;;;;;;8.60;3.83;;;19.20;99.90;;;;;;5088015;28;21123;-60
2023/08/26 08:39:50;;;;;;;8.33;4.37;;;19.40;99.90;;;;;;5075360;28;20439;-60
2023/08/26 08:42:16;;;;;;;5.67;3.80;;;19.50;99.90;;;;;;5086012;28;20197;-60
2023/08/26 08:44:43;;;;;;;7.13;4.40;;;19.70;99.90;;;;;;5083941;28;20180;-62
2023/08/26 08:47:10;;;;;;;7.30;3.60;;;19.80;99.90;;;;;;5085985;28;20431;-61
2023/08/26 08:49:37;;;;;;;8.03;4.53;;;20.00;99.90;;;;;;5086980;28;20431;-61
2023/08/26 08:52:04;;;;;;;7.80;4.40;;;20.20;99.90;;;;;;5089870;28;20980;-61
2023/08/26 08:54:30;;;;;;;9.97;4.90;;;20.40;99.90;;;;;;5084016;28;20432;-60
2023/08/26 08:56:56;;;;;;;7.90;4.07;;;20.60;99.90;;;;;;5092792;28;20455;-62
2023/08/26 08:59:24;;;;;;;9.17;4.37;;;20.60;99.90;;;;;;5090155;28;20484;-62
2023/08/26 09:01:54;;;;;;;7.77;4.33;;;20.60;99.90;;;;;;5093278;28;20516;-61
2023/08/26 09:04:21;;;;;;;6.60;4.80;;;20.50;99.90;;;;;;5089284;28;20427;-61
2023/08/26 09:06:48;;;;;;;4.90;4.40;;;20.50;99.90;;;;;;5088340;28;20496;-59
2023/08/26 09:09:15;;;;;;;8.57;4.60;;;20.50;99.90;;;;;;5088738;28;20435;-59
2023/08/26 09:11:41;;;;;;;5.83;4.10;;;20.50;99.90;;;;;;5092330;28;20516;-59
2023/08/26 09:14:07;;;;;;;12.80;4.70;;;20.40;99.90;;;;;;5088152;28;20439;-59
2023/08/26 09:16:40;;;;;;;9.47;4.70;;;20.30;99.90;;;;;;5090891;28;20244;-59
2023/08/26 09:19:11;;;;;;;17.03;5.27;;;20.40;99.90;;;;;;5088360;28;20955;-60
2023/08/26 09:21:44;;;;;;;7.97;4.37;;;20.40;99.90;;;;;;5090716;28;20687;-60
2023/08/26 09:24:14;;;;;;;10.10;5.20;;;20.50;99.90;;;;;;5086532;28;20511;-60
2023/08/26 09:26:48;;;;;;;11.57;5.90;;;20.60;99.90;;;;;;5087868;28;21081;-60
2023/08/26 09:29:20;;;;;;;11.63;5.20;;;20.70;99.90;;;;;;5085730;28;20518;-60
2023/08/26 09:31:50;;;;;;;6.00;4.47;;;20.80;99.90;;;;;;5083062;28;20461;-61
2023/08/26 09:34:28;;;;;;;6.57;4.90;;;20.80;99.90;;;;;;5090781;28;20526;-62
2023/08/26 09:36:54;;;;;;;9.33;4.20;;;20.70;99.90;;;;;;5084977;28;20451;-61
2023/08/26 09:39:21;;;;;;;15.50;5.77;;;20.70;99.90;;;;;;5089716;28;20424;-61
2023/08/26 09:41:47;;;;;;;8.60;4.80;;;20.60;99.90;;;;;;5089506;28;20700;-63
2023/08/26 09:44:15;;;;;;;7.67;5.17;;;20.60;99.90;;;;;;5091102;28;20520;-60
2023/08/26 09:46:42;;;;;;;12.30;5.30;;;20.50;99.90;;;;;;5087789;28;20448;-60
2023/08/26 09:49:15;;;;;;;8.70;4.57;;;20.50;99.90;;;;;;5088537;28;21093;-61
2023/08/26 09:51:47;;;;;;;7.80;4.90;;;20.50;99.90;;;;;;5091055;28;20447;-60
2023/08/26 09:54:18;;;;;;;13.80;4.97;;;20.50;99.90;;;;;;5088851;28;20492;-61
2023/08/26 09:56:48;;;;;;;6.90;4.87;;;20.60;99.90;;;;;;5082184;28;20554;-60
2023/08/26 09:59:14;;;;;;;9.10;4.77;;;20.60;99.90;;;;;;5091277;28;20422;-61
2023/08/26 10:01:42;;;;;;;12.93;4.17;;;20.70;99.90;;;;;;5073017;28;20487;-61
2023/08/26 10:04:09;;;;;;;10.50;4.83;;;20.90;99.90;;;;;;5083168;28;20513;-61
2023/08/26 10:06:52;;;;;;;5.57;4.43;;;21.10;99.90;;;;;;5091498;28;20519;-61
2023/08/26 10:09:39;;;;;;;11.37;5.33;;;21.10;99.90;;;;;;5086610;28;20950;-61
2023/08/26 10:12:15;;;;;;;9.20;4.63;;;21.10;99.90;;;;;;5083035;28;20463;-60
2023/08/26 10:14:42;;;;;;;8.20;5.70;;;21.00;99.90;;;;;;5092469;28;20459;-60
2023/08/26 10:17:13;;;;;;;9.40;5.40;;;20.90;99.90;;;;;;5091278;28;20963;-61
2023/08/26 10:19:41;;;;;;;17.47;6.10;;;20.80;99.90;;;;;;5088654;28;20439;-60
2023/08/26 10:22:09;;;;;;;10.40;6.10;;;20.70;99.90;;;;;;5089119;28;20436;-60
2023/08/26 10:24:37;;;;;;;10.67;5.93;;;20.60;99.90;;;;;;5086306;28;20455;-60
2023/08/26 10:27:03;;;;;;;10.53;5.50;;;20.50;99.90;;;;;;5090690;28;20419;-61
2023/08/26 10:29:30;;;;;;;8.67;5.00;;;20.40;99.90;;;;;;5088048;28;20493;-61
2023/08/26 10:31:56;;;;;;;10.27;5.57;;;20.50;99.90;;;;;;5090203;28;20451;-61
2023/08/26 10:34:31;;;;;;;11.53;4.80;;;20.40;99.90;;;;;;5093283;28;20450;-63
2023/08/26 10:36:57;;;;;;;9.63;5.77;;;20.40;99.90;;;;;;5090387;28;20201;-60
2023/08/26 10:39:24;;;;;;;9.53;5.20;;;20.30;99.90;;;;;;5081901;28;20431;-61
2023/08/26 10:42:18;;;;;;;11.13;5.77;;;20.40;99.90;;;;;;5087970;28;20932;-62
2023/08/26 10:44:55;;;;;;;16.90;4.87;;;20.40;99.90;;;;;;5086945;28;20431;-61
2023/08/26 10:47:37;;;;;;;10.33;4.80;;;20.30;99.90;;;;;;5086037;28;20438;-61
2023/08/26 10:50:22;;;;;;;11.10;4.90;;;20.30;99.90;;;;;;5089257;28;20419;-63
2023/08/26 10:52:53;;;;;;;10.30;5.07;;;20.20;99.90;;;;;;5084998;28;20827;-61
2023/08/26 10:55:32;;;;;;;7.37;4.50;;;20.10;99.90;;;;;;5085382;28;20439;-61
2023/08/26 10:58:02;;;;;;;9.10;4.77;;;20.10;99.90;;;;;;5085799;28;20535;-61
2023/08/26 11:00:28;;;;;;;8.80;5.23;;;20.00;99.90;;;;;;5090574;28;21027;-61
2023/08/26 11:02:57;;;;;;;10.10;4.67;;;20.00;99.90;;;;;;5087488;28;20514;-61
2023/08/26 11:05:23;;;;;;;13.33;5.20;;;19.90;99.90;;;;;;5081795;28;20677;-60
2023/08/26 11:07:49;;;;;;;15.60;5.70;;;19.80;99.90;;;;;;5089708;28;20455;-62
2023/08/26 11:10:28;;;;;;;10.77;5.93;;;19.80;99.90;;;;;;5088813;28;20857;-59
2023/08/26 11:12:54;;;;;;;10.73;6.50;;;19.70;99.90;;;;;;5083477;28;20194;-61
2023/08/26 11:15:20;;;;;;;14.73;6.90;;;19.60;99.90;;;;;;5091044;28;20423;-61
2023/08/26 11:17:47;;;;;;;9.50;5.83;;;19.50;99.90;;;;;;5087305;28;20551;-60
2023/08/26 11:20:16;;;;;;;16.80;5.87;;;19.30;99.90;;;;;;5080004;28;20427;-61
2023/08/26 11:22:45;;;;;;;11.27;6.10;;;19.20;99.90;;;;;;5082619;28;20512;-63
2023/08/26 11:25:14;;;;;;;7.83;6.13;;;19.10;99.90;;;;;;5089041;28;20443;-61
2023/08/26 11:27:40;;;;;;;14.30;6.23;;;19.00;99.90;;;;;;5090009;28;20438;-60
2023/08/26 11:30:10;;;;;;;10.87;5.87;;;19.00;99.90;;;;;;5083089;28;20431;-61
2023/08/26 11:32:37;;;;;;;10.07;6.40;;;18.90;99.90;;;;;;5088411;28;20226;-62
2023/08/26 11:35:12;;;;;;;15.33;6.23;;;18.90;99.90;;;;;;5088916;28;20427;-61
2023/08/26 11:37:43;;;;;;;12.20;6.73;;;18.90;99.90;;;;;;5094065;28;20502;-62
2023/08/26 11:40:13;;;;;;;12.90;7.13;;;18.80;99.90;;;;;;5082103;28;20507;-61
2023/08/26 11:42:39;;;;;;;9.60;6.67;;;18.80;99.90;;;;;;5094434;28;20436;-61
2023/08/26 11:45:09;;;;;;;18.30;7.20;;;18.80;99.90;;;;;;5089415;28;21099;-62
2023/08/26 11:47:35;;;;;;;14.63;6.60;;;18.80;99.90;;;;;;5087320;28;20855;-61
2023/08/26 11:50:00;;;;;;;9.37;7.00;;;18.70;99.90;;;;;;5087232;28;20431;-62
2023/08/26 11:52:34;;;;;;;11.27;5.77;;;18.80;99.90;;;;;;5093323;28;20691;-61
2023/08/26 11:55:01;;;;;;;18.90;6.40;;;18.80;99.90;;;;;;5084802;28;20268;-62
2023/08/26 11:57:27;;;;;;;12.33;5.90;;;18.80;99.90;;;;;;5087339;28;20464;-61
2023/08/26 12:00:04;;;;;;;8.93;6.00;;;18.80;99.90;;;;;;5068816;28;20428;-61
2023/08/26 12:02:30;;;;;;;17.30;5.90;;;18.80;99.90;;;;;;5082535;28;20559;-60
2023/08/26 12:04:57;;;;;;;9.67;6.37;;;18.80;99.90;;;;;;5084339;28;20507;-61
2023/08/26 12:07:26;;;;;;;13.47;6.80;;;18.90;99.90;;;;;;5087497;28;20964;-61
2023/08/26 12:09:53;;;;;;;9.20;5.80;;;18.90;99.90;;;;;;5084928;28;20436;-61
2023/08/26 12:12:23;;;;;;;10.80;6.23;;;18.90;99.90;;;;;;5083450;28;21050;-61
2023/08/26 12:14:49;;;;;;;9.03;6.47;;;18.90;99.90;;;;;;5088028;28;20508;-61
2023/08/26 12:17:15;;;;;;;12.20;6.97;;;18.90;99.90;;;;;;5089384;28;20512;-61
2023/08/26 12:19:41;;;;;;;9.63;6.23;;;19.00;99.90;;;;;;5086735;28;20415;-61
2023/08/26 12:22:07;;;;;;;7.00;5.93;;;19.00;99.90;;;;;;5087463;28;20454;-61
2023/08/26 12:24:36;;;;;;;13.73;6.73;;;19.00;99.90;;;;;;5085593;28;20450;-60
2023/08/26 12:27:09;;;;;;;10.80;5.80;;;18.90;99.90;;;;;;5092526;28;20823;-62
2023/08/26 12:29:35;;;;;;;10.60;5.93;;;18.90;99.90;;;;;;5085044;28;20428;-61
2023/08/26 12:32:01;;;;;;;10.13;4.97;;;18.90;99.90;;;;;;5086068;28;20456;-61
2023/08/26 12:34:26;;;;;;;8.37;5.40;;;18.90;99.90;;;;;;5088314;28;20458;-62
2023/08/26 12:36:52;;;;;;;6.70;4.90;;;18.90;99.90;;;;;;5091083;28;20253;-60
2023/08/26 12:39:17;;;;;;;10.63;4.93;;;18.90;99.90;;;;;;5083309;28;20174;-61
2023/08/26 12:41:43;;;;;;;5.63;5.00;;;18.80;99.90;;;;;;5083841;28;20288;-60